createdAt,value
2019-02-06T00:01:38.733Z,101475.86
2019-02-06T00:04:06.707Z,101479.34
2019-02-06T00:06:34.981Z,101484.58
2019-02-06T00:09:04.073Z,101485.89
2019-02-06T00:11:34.857Z,101485.42
2019-02-06T00:14:01.049Z,101477.11
2019-02-06T00:16:28.661Z,101483.69
2019-02-06T00:18:56.276Z,101492.42
2019-02-06T00:21:24.239Z,101481.97
2019-02-06T00:23:52.205Z,101477.16
2019-02-06T00:26:20.186Z,101486.31
2019-02-06T00:28:48.169Z,101488.92
2019-02-06T00:31:16.113Z,101486.69
2019-02-06T00:33:44.087Z,101483.64
2019-02-06T00:36:12.052Z,101481.03
2019-02-06T00:38:39.673Z,101478.41
2019-02-06T00:41:07.682Z,101478.41
2019-02-06T00:43:35.370Z,101476.22
2019-02-06T00:46:03.266Z,101477.11
2019-02-06T00:48:31.188Z,101482.80
2019-02-06T00:50:59.168Z,101486.27
2019-02-06T00:53:26.793Z,101479.30
2019-02-06T00:55:54.786Z,101479.26
2019-02-06T00:58:22.974Z,101482.34
2019-02-06T01:00:50.603Z,101481.50
2019-02-06T01:03:18.306Z,101479.26
2019-02-06T01:05:46.252Z,101481.45
2019-02-06T01:08:14.222Z,101484.48
2019-02-06T01:10:42.191Z,101479.68
2019-02-06T01:13:10.058Z,101485.36
2019-02-06T01:15:38.333Z,101481.44
2019-02-06T01:18:06.308Z,101490.19
2019-02-06T01:20:33.932Z,101487.57
2019-02-06T01:23:01.835Z,101486.22
2019-02-06T01:25:29.814Z,101485.42
2019-02-06T01:27:57.449Z,101481.88
2019-02-06T01:30:26.564Z,101477.95
2019-02-06T01:32:54.470Z,101477.52
2019-02-06T01:35:22.420Z,101477.06
2019-02-06T01:37:50.385Z,101483.18
2019-02-06T01:40:18.337Z,101482.75
2019-02-06T01:42:45.950Z,101483.18
2019-02-06T01:45:14.583Z,101485.78
2019-02-06T01:47:42.223Z,101487.10
2019-02-06T01:50:11.551Z,101480.98
2019-02-06T01:52:39.416Z,101483.64
2019-02-06T01:55:07.385Z,101481.44
2019-02-06T01:57:35.015Z,101484.48
2019-02-06T02:00:02.646Z,101476.64
2019-02-06T02:02:30.578Z,101474.45
2019-02-06T02:04:58.206Z,101474.91
2019-02-06T02:07:26.105Z,101470.98
2019-02-06T02:09:54.084Z,101467.05
2019-02-06T02:12:21.709Z,101461.37
2019-02-06T02:14:49.332Z,101460.94
2019-02-06T02:17:17.239Z,101460.52
2019-02-06T02:19:45.138Z,101463.97
2019-02-06T02:22:13.105Z,101460.94
2019-02-06T02:24:41.076Z,101458.75
2019-02-06T02:27:08.878Z,101461.37
2019-02-06T02:29:36.823Z,101457.91
2019-02-06T02:32:04.786Z,101454.83
2019-02-06T02:34:32.402Z,101449.59
2019-02-06T02:37:00.309Z,101450.05
2019-02-06T02:39:28.177Z,101452.67
2019-02-06T02:41:56.144Z,101444.83
2019-02-06T02:44:24.119Z,101442.59
2019-02-06T02:46:51.743Z,101449.59
2019-02-06T02:49:19.644Z,101446.13
2019-02-06T02:51:47.273Z,101446.51
2019-02-06T02:54:14.900Z,101444.36
2019-02-06T02:56:42.527Z,101442.63
2019-02-06T02:59:10.414Z,101440.90
2019-02-06T03:02:03.663Z,101440.44
2019-02-06T03:04:35.033Z,101432.12
2019-02-06T03:07:02.658Z,101432.59
2019-02-06T03:09:30.300Z,101433.90
2019-02-06T03:11:58.205Z,101436.94
2019-02-06T03:14:26.167Z,101428.66
2019-02-06T03:16:53.800Z,101433.90
2019-02-06T03:19:21.423Z,101430.86
2019-02-06T03:21:49.058Z,101430.44
2019-02-06T03:24:17.032Z,101426.05
2019-02-06T03:26:45.009Z,101429.13
2019-02-06T03:29:12.801Z,101421.24
2019-02-06T03:31:40.437Z,101427.82
2019-02-06T03:34:08.398Z,101423.44
2019-02-06T03:36:40.420Z,101427.36
2019-02-06T03:39:05.661Z,101426.89
2019-02-06T03:41:33.653Z,101426.89
2019-02-06T03:44:01.601Z,101425.21
2019-02-06T03:46:29.571Z,101419.98
2019-02-06T03:48:57.191Z,101415.59
2019-02-06T03:51:25.102Z,101418.20
2019-02-06T03:53:52.722Z,101413.81
2019-02-06T03:56:20.626Z,101410.36
2019-02-06T03:58:48.246Z,101416.43
2019-02-06T04:01:15.884Z,101420.77
2019-02-06T04:03:44.128Z,101417.36
2019-02-06T04:06:11.753Z,101420.82
2019-02-06T04:08:39.681Z,101413.39
2019-02-06T04:11:07.642Z,101414.66
2019-02-06T04:13:35.267Z,101420.77
2019-02-06T04:16:02.892Z,101417.31
2019-02-06T04:18:30.822Z,101419.89
2019-02-06T04:20:58.822Z,101421.20
2019-02-06T04:23:26.443Z,101423.81
2019-02-06T04:25:54.071Z,101419.94
2019-02-06T04:28:21.985Z,101417.31
2019-02-06T04:30:49.956Z,101427.82
2019-02-06T04:33:17.573Z,101426.11
2019-02-06T04:35:45.477Z,101423.95
2019-02-06T04:38:13.269Z,101423.11
2019-02-06T04:40:41.226Z,101425.73
2019-02-06T04:43:09.187Z,101416.58
2019-02-06T04:45:37.149Z,101420.51
2019-02-06T04:48:05.152Z,101419.66
2019-02-06T04:50:33.092Z,101414.91
2019-02-06T04:53:00.720Z,101416.30
2019-02-06T04:55:28.722Z,101412.76
2019-02-06T04:57:56.353Z,101414.58
2019-02-06T05:00:23.971Z,101408.45
2019-02-06T05:02:51.918Z,101408.88
2019-02-06T05:05:19.785Z,101406.27
2019-02-06T05:07:47.780Z,101412.80
2019-02-06T05:10:15.441Z,101410.19
2019-02-06T05:12:43.797Z,101412.42
2019-02-06T05:15:11.664Z,101404.53
2019-02-06T05:17:39.654Z,101405.84
2019-02-06T05:20:07.609Z,101409.84
2019-02-06T05:22:35.576Z,101407.15
2019-02-06T05:25:03.559Z,101410.19
2019-02-06T05:27:31.514Z,101403.64
2019-02-06T05:29:59.512Z,101411.03
2019-02-06T05:32:27.140Z,101412.30
2019-02-06T05:34:55.113Z,101419.77
2019-02-06T05:37:31.591Z,101410.98
2019-02-06T05:39:52.059Z,101421.02
2019-02-06T05:42:19.940Z,101416.67
2019-02-06T05:44:47.911Z,101415.36
2019-02-06T05:47:15.882Z,101420.59
2019-02-06T05:49:43.860Z,101421.02
2019-02-06T05:52:11.820Z,101427.13
2019-02-06T05:54:39.713Z,101422.14
2019-02-06T05:57:07.664Z,101424.30
2019-02-06T05:59:35.631Z,101422.42
2019-02-06T06:02:03.598Z,101421.21
2019-02-06T06:04:31.567Z,101424.15
2019-02-06T06:06:59.742Z,101423.69
2019-02-06T06:09:27.713Z,101422.38
2019-02-06T06:11:55.333Z,101420.14
2019-02-06T06:14:22.959Z,101431.91
2019-02-06T06:16:50.578Z,101425.38
2019-02-06T06:19:18.463Z,101430.69
2019-02-06T06:21:46.565Z,101430.69
2019-02-06T06:24:14.504Z,101428.66
2019-02-06T06:26:42.143Z,101421.72
2019-02-06T06:29:10.039Z,101421.34
2019-02-06T06:31:37.681Z,101428.34
2019-02-06T06:34:05.576Z,101424.42
2019-02-06T06:36:33.479Z,101428.35
2019-02-06T06:39:01.401Z,101432.59
2019-02-06T06:41:29.373Z,101428.41
2019-02-06T06:43:57.340Z,101429.40
2019-02-06T06:46:25.318Z,101431.14
2019-02-06T06:48:52.932Z,101430.34
2019-02-06T06:51:20.838Z,101429.92
2019-02-06T06:53:48.481Z,101430.35
2019-02-06T06:56:16.372Z,101437.31
2019-02-06T06:58:44.376Z,101445.61
2019-02-06T07:01:12.322Z,101446.47
2019-02-06T07:03:40.275Z,101440.81
2019-02-06T07:06:08.142Z,101441.22
2019-02-06T07:08:35.768Z,101446.92
2019-02-06T07:11:03.691Z,101444.30
2019-02-06T07:13:31.330Z,101439.92
2019-02-06T07:16:00.429Z,101445.61
2019-02-06T07:18:28.128Z,101446.92
2019-02-06T07:20:56.062Z,101448.23
2019-02-06T07:23:24.039Z,101441.69
2019-02-06T07:25:52.006Z,101440.75
2019-02-06T07:28:19.977Z,101443.84
2019-02-06T07:30:47.943Z,101443.84
2019-02-06T07:33:15.580Z,101442.95
2019-02-06T07:35:43.472Z,101445.14
2019-02-06T07:38:23.233Z,101445.61
2019-02-06T07:40:40.785Z,101449.08
2019-02-06T07:43:08.709Z,101447.76
2019-02-06T07:45:36.327Z,101450.84
2019-02-06T07:48:04.248Z,101448.23
2019-02-06T07:50:32.213Z,101448.66
2019-02-06T07:52:59.846Z,101451.27
2019-02-06T07:55:27.468Z,101453.00
2019-02-06T07:57:55.093Z,101448.23
2019-02-06T08:00:22.714Z,101443.42
2019-02-06T08:02:50.632Z,101445.62
2019-02-06T08:05:18.247Z,101440.86
2019-02-06T08:07:46.153Z,101440.44
2019-02-06T08:10:14.331Z,101434.73
2019-02-06T08:12:42.326Z,101435.67
2019-02-06T08:15:09.942Z,101431.28
2019-02-06T08:17:37.828Z,101427.36
2019-02-06T08:20:05.814Z,101426.95
2019-02-06T08:22:33.788Z,101417.42
2019-02-06T08:25:01.740Z,101415.69
2019-02-06T08:27:29.749Z,101420.08
2019-02-06T08:29:57.684Z,101417.05
2019-02-06T08:32:25.647Z,101417.47
2019-02-06T08:34:53.279Z,101416.16
2019-02-06T08:37:21.172Z,101418.83
2019-02-06T08:39:48.866Z,101414.02
2019-02-06T08:42:16.807Z,101410.55
2019-02-06T08:44:44.702Z,101410.98
2019-02-06T08:47:12.321Z,101401.41
2019-02-06T08:49:40.206Z,101403.60
2019-02-06T08:52:08.071Z,101395.75
2019-02-06T08:54:36.040Z,101398.84
2019-02-06T08:57:04.010Z,101398.88
2019-02-06T08:59:31.690Z,101390.14
2019-02-06T09:01:59.956Z,101391.45
2019-02-06T09:04:27.917Z,101380.98
2019-02-06T09:06:55.787Z,101378.38
2019-02-06T09:09:23.409Z,101380.11
2019-02-06T09:11:51.319Z,101376.69
2019-02-06T09:14:19.288Z,101381.42
2019-02-06T09:16:47.260Z,101374.07
2019-02-06T09:19:15.540Z,101379.77
2019-02-06T09:21:43.145Z,101372.76
2019-02-06T09:24:10.769Z,101379.35
2019-02-06T09:26:38.722Z,101371.07
2019-02-06T09:29:06.700Z,101368.45
2019-02-06T09:31:34.317Z,101361.45
2019-02-06T09:34:01.947Z,101355.37
2019-02-06T09:36:30.088Z,101360.20
2019-02-06T09:38:58.064Z,101357.11
2019-02-06T09:41:26.058Z,101359.35
2019-02-06T09:43:53.998Z,101357.16
2019-02-06T09:46:21.969Z,101356.73
2019-02-06T09:48:49.942Z,101365.47
2019-02-06T09:51:19.383Z,101360.24
2019-02-06T09:53:47.211Z,101360.66
2019-02-06T09:56:15.179Z,101358.50
2019-02-06T09:58:43.146Z,101353.28
2019-02-06T10:01:11.120Z,101358.94
2019-02-06T10:03:38.739Z,101355.94
2019-02-06T10:06:06.362Z,101355.09
2019-02-06T10:08:34.341Z,101352.91
2019-02-06T10:11:02.286Z,101350.75
2019-02-06T10:13:30.151Z,101348.59
2019-02-06T10:15:57.788Z,101354.34
2019-02-06T10:18:25.407Z,101357.01
2019-02-06T10:20:53.468Z,101360.59
2019-02-06T10:23:21.329Z,101358.03
2019-02-06T10:25:48.948Z,101357.27
2019-02-06T10:28:16.579Z,101352.20
2019-02-06T10:30:44.503Z,101347.68
2019-02-06T10:33:12.384Z,101338.58
2019-02-06T10:35:40.337Z,101336.05
2019-02-06T10:38:07.968Z,101338.47
2019-02-06T10:40:35.581Z,101341.81
2019-02-06T10:43:03.538Z,101343.46
2019-02-06T10:45:31.500Z,101330.25
2019-02-06T10:47:59.368Z,101329.78
2019-02-06T10:50:27.338Z,101328.05
2019-02-06T10:52:54.955Z,101315.35
2019-02-06T10:55:22.884Z,101312.73
2019-02-06T10:57:50.838Z,101310.11
2019-02-06T11:00:18.905Z,101314.46
2019-02-06T11:02:46.776Z,101298.30
2019-02-06T11:05:14.954Z,101307.45
2019-02-06T11:07:42.566Z,101306.53
2019-02-06T11:10:10.200Z,101303.48
2019-02-06T11:12:37.829Z,101296.94
2019-02-06T11:15:05.448Z,101289.48
2019-02-06T11:17:33.369Z,101279.86
2019-02-06T11:20:01.348Z,101280.31
2019-02-06T11:22:29.506Z,101273.77
2019-02-06T11:24:57.572Z,101269.39
2019-02-06T11:27:25.445Z,101272.47
2019-02-06T11:29:53.435Z,101269.42
2019-02-06T11:32:21.391Z,101258.95
2019-02-06T11:34:49.020Z,101255.07
2019-02-06T11:37:16.925Z,101252.41
2019-02-06T11:39:45.104Z,101258.53
2019-02-06T11:42:12.730Z,101255.92
2019-02-06T11:44:40.637Z,101255.03
2019-02-06T11:47:08.592Z,101254.15
2019-02-06T11:49:39.302Z,101252.41
2019-02-06T11:52:07.191Z,101253.30
2019-02-06T11:54:34.815Z,101250.69
2019-02-06T11:57:02.744Z,101244.61
2019-02-06T11:59:30.350Z,101238.06
2019-02-06T12:01:57.982Z,101239.41
2019-02-06T12:04:25.915Z,101238.95
2019-02-06T12:06:53.920Z,101235.88
2019-02-06T12:09:21.852Z,101230.64
2019-02-06T12:11:49.487Z,101228.02
2019-02-06T12:14:17.188Z,101226.71
2019-02-06T12:16:45.161Z,101222.78
2019-02-06T12:19:13.140Z,101220.20
2019-02-06T12:21:41.087Z,101215.39
2019-02-06T12:24:09.060Z,101215.85
2019-02-06T12:26:37.030Z,101201.92
2019-02-06T12:29:05.405Z,101205.42
2019-02-06T12:31:33.330Z,101192.34
2019-02-06T12:34:01.259Z,101189.27
2019-02-06T12:36:28.892Z,101183.18
2019-02-06T12:38:56.520Z,101183.60
2019-02-06T12:41:24.439Z,101175.75
2019-02-06T12:43:52.311Z,101181.48
2019-02-06T12:46:20.286Z,101173.17
2019-02-06T12:48:48.241Z,101165.31
2019-02-06T12:51:16.237Z,101171.02
2019-02-06T12:53:43.853Z,101161.78
2019-02-06T12:56:11.762Z,101162.24
2019-02-06T12:58:39.707Z,101160.08
2019-02-06T13:01:07.680Z,101157.05
2019-02-06T13:03:35.296Z,101157.05
2019-02-06T13:06:03.226Z,101149.61
2019-02-06T13:08:31.179Z,101141.30
2019-02-06T13:10:59.245Z,101136.53
2019-02-06T13:13:26.871Z,101137.84
2019-02-06T13:15:54.782Z,101126.91
2019-02-06T13:18:24.264Z,101131.69
2019-02-06T13:20:52.167Z,101129.06
2019-02-06T13:23:20.122Z,101126.45
2019-02-06T13:25:48.092Z,101119.48
2019-02-06T13:28:16.167Z,101117.29
2019-02-06T13:30:44.139Z,101118.20
2019-02-06T13:33:12.103Z,101115.17
2019-02-06T13:35:40.079Z,101112.52
2019-02-06T13:38:08.052Z,101111.66
2019-02-06T13:40:45.211Z,101104.66
2019-02-06T13:43:05.523Z,101106.40
2019-02-06T13:45:33.154Z,101108.16
2019-02-06T13:48:00.781Z,101098.55
2019-02-06T13:50:28.425Z,101098.97
2019-02-06T13:52:56.371Z,101092.89
2019-02-06T13:55:24.345Z,101092.46
2019-02-06T13:57:52.312Z,101092.92
2019-02-06T14:00:20.284Z,101088.17
2019-02-06T14:02:48.250Z,101094.81
2019-02-06T14:05:16.219Z,101083.52
2019-02-06T14:07:44.195Z,101086.23
2019-02-06T14:10:11.809Z,101075.33
2019-02-06T14:12:39.434Z,101074.97
2019-02-06T14:15:07.401Z,101068.48
2019-02-06T14:17:35.409Z,101068.05
2019-02-06T14:20:03.030Z,101066.37
2019-02-06T14:22:30.999Z,101062.89
2019-02-06T14:24:58.607Z,101055.49
2019-02-06T14:27:26.232Z,101052.45
2019-02-06T14:29:54.174Z,101055.09
2019-02-06T14:32:21.816Z,101052.50
2019-02-06T14:34:50.229Z,101043.79
2019-02-06T14:37:17.844Z,101044.21
2019-02-06T14:39:45.751Z,101043.33
2019-02-06T14:42:13.717Z,101041.55
2019-02-06T14:44:41.697Z,101043.66
2019-02-06T14:47:09.659Z,101037.48
2019-02-06T14:49:37.624Z,101037.45
2019-02-06T14:52:05.265Z,101030.42
2019-02-06T14:54:33.154Z,101033.05
2019-02-06T14:57:00.783Z,101026.02
2019-02-06T14:59:28.404Z,101022.52
2019-02-06T15:01:56.036Z,101021.20
2019-02-06T15:04:24.020Z,101016.34
2019-02-06T15:06:52.213Z,101011.98
2019-02-06T15:09:22.176Z,101017.22
2019-02-06T15:11:49.766Z,101007.15
2019-02-06T15:14:17.627Z,101004.11
2019-02-06T15:16:45.597Z,101004.50
2019-02-06T15:19:13.225Z,101002.34
2019-02-06T15:21:40.853Z,101001.46
2019-02-06T15:24:09.102Z,100992.70
2019-02-06T15:26:36.736Z,100994.01
2019-02-06T15:29:04.772Z,100987.01
2019-02-06T15:31:32.398Z,100982.56
2019-02-06T15:34:00.377Z,100986.04
2019-02-06T15:36:28.006Z,100986.92
2019-02-06T15:38:55.641Z,100984.30
2019-02-06T15:41:30.701Z,100982.56
2019-02-06T15:43:52.594Z,100976.91
2019-02-06T15:46:20.821Z,100983.02
2019-02-06T15:48:48.445Z,100977.77
2019-02-06T15:51:16.357Z,100972.95
2019-02-06T15:53:43.986Z,100981.27
2019-02-06T15:56:12.422Z,100976.88
2019-02-06T15:58:40.388Z,100971.19
2019-02-06T16:01:08.343Z,100969.00
2019-02-06T16:03:55.013Z,100963.31
2019-02-06T16:06:28.949Z,100958.50
2019-02-06T16:08:56.922Z,100960.23
2019-02-06T16:11:24.537Z,100962.40
2019-02-06T16:13:52.449Z,100959.36
2019-02-06T16:16:20.422Z,100959.78
2019-02-06T16:18:48.388Z,100960.21
2019-02-06T16:21:16.365Z,100958.30
2019-02-06T16:23:44.653Z,100953.55
2019-02-06T16:26:12.266Z,100951.84
2019-02-06T16:28:39.894Z,100947.04
2019-02-06T16:31:07.520Z,100947.50
2019-02-06T16:33:35.493Z,100952.33
2019-02-06T16:36:03.457Z,100942.72
2019-02-06T16:38:31.431Z,100946.25
2019-02-06T16:40:59.323Z,100944.05
2019-02-06T16:43:27.268Z,100946.67
2019-02-06T16:45:55.236Z,100941.87
2019-02-06T16:48:23.201Z,100944.03
2019-02-06T16:50:51.091Z,100944.91
2019-02-06T16:53:18.786Z,100943.34
2019-02-06T16:55:46.702Z,100932.55
2019-02-06T16:58:14.502Z,100944.27
2019-02-06T17:00:42.442Z,100938.34
2019-02-06T17:03:10.417Z,100936.31
2019-02-06T17:05:38.273Z,100938.98
2019-02-06T17:08:05.925Z,100935.95
2019-02-06T17:10:33.821Z,100929.70
2019-02-06T17:13:01.982Z,100939.34
2019-02-06T17:15:29.598Z,100935.13
2019-02-06T17:17:57.224Z,100923.36
2019-02-06T17:20:24.836Z,100928.16
2019-02-06T17:22:52.731Z,100925.97
2019-02-06T17:25:20.601Z,100930.38
2019-02-06T17:27:48.568Z,100929.07
2019-02-06T17:30:16.641Z,100925.59
2019-02-06T17:32:44.270Z,100919.06
2019-02-06T17:35:12.173Z,100922.59
2019-02-06T17:37:40.137Z,100919.09
2019-02-06T17:40:08.029Z,100921.70
2019-02-06T17:42:35.976Z,100919.55
2019-02-06T17:45:03.877Z,100919.97
2019-02-06T17:47:31.498Z,100919.09
2019-02-06T17:49:59.132Z,100919.09
2019-02-06T17:52:27.043Z,100914.73
2019-02-06T17:54:55.014Z,100918.66
2019-02-06T17:57:22.983Z,100920.84
2019-02-06T17:59:50.948Z,100925.23
2019-02-06T18:02:19.117Z,100928.73
2019-02-06T18:04:47.088Z,100928.72
2019-02-06T18:07:15.018Z,100927.00
2019-02-06T18:09:42.655Z,100922.61
2019-02-06T18:12:10.586Z,100917.84
2019-02-06T18:14:38.214Z,100920.88
2019-02-06T18:17:05.850Z,100922.64
2019-02-06T18:19:33.850Z,100916.55
2019-02-06T18:22:01.465Z,100927.02
2019-02-06T18:24:29.410Z,100924.41
2019-02-06T18:26:57.284Z,100913.09
2019-02-06T18:29:25.245Z,100909.58
2019-02-06T18:31:53.117Z,100914.81
2019-02-06T18:34:21.095Z,100918.31
2019-02-06T18:36:49.059Z,100911.34
2019-02-06T18:39:17.228Z,100906.97
2019-02-06T18:41:45.201Z,100903.50
2019-02-06T18:44:12.834Z,100906.97
2019-02-06T18:46:40.731Z,100900.00
2019-02-06T18:49:08.609Z,100910.46
2019-02-06T18:51:36.564Z,100904.36
2019-02-06T18:54:04.538Z,100903.02
2019-02-06T18:56:32.156Z,100908.28
2019-02-06T18:58:59.783Z,100903.02
2019-02-06T19:01:28.040Z,100899.94
2019-02-06T19:03:56.025Z,100898.21
2019-02-06T19:06:23.972Z,100888.63
2019-02-06T19:13:17.469Z,100884.34
2019-02-06T19:15:55.934Z,100882.25
2019-02-06T19:18:14.532Z,100874.82
2019-02-06T19:20:42.505Z,100871.70
2019-02-06T19:23:10.373Z,100878.20
2019-02-06T19:25:37.997Z,100883.75
2019-02-06T19:28:05.927Z,100882.31
2019-02-06T19:30:34.177Z,100880.92
2019-02-06T19:33:01.807Z,100878.19
2019-02-06T19:35:29.711Z,100877.24
2019-02-06T19:37:57.326Z,100873.23
2019-02-06T19:40:25.241Z,100867.09
2019-02-06T19:43:00.466Z,100866.14
2019-02-06T19:45:22.441Z,100860.86
2019-02-06T19:47:50.061Z,100857.36
2019-02-06T19:50:18.241Z,100857.76
2019-02-06T19:52:45.858Z,100842.44
2019-02-06T19:55:13.769Z,100845.48
2019-02-06T19:57:41.647Z,100840.23
2019-02-06T20:00:10.008Z,100835.84
2019-02-06T20:02:38.089Z,100829.80
2019-02-06T20:05:06.083Z,100835.00
2019-02-06T20:07:34.035Z,100841.58
